Spacecraft Satellite overpass computed based on SGP4 code. Updated every day at 2:25 LT
Spacecraft : Terra    
         GMT                             Satellite      Satellite     Solar          Solar         Scat ang       
  year-mo-da hr:mn:sc    elevation     azimuth    elevation   azimuth    (bk=180)     
  2018-02-25 08:17:53     17.2             89.4          22.9           139.9         132.4
  2018-02-25 09:56:07     69.6            287.8          30.1           165.8         108.1
  2018-02-25 11:33:02     12.2            307.1          30.2           193.6          76.7
  2018-02-25 19:28:50     31.6             64.3         -31.7           297.8        -999.0
  2018-02-25 21:06:30     38.1            262.7         -43.5           324.8        -999.0
Spacecraft : Aqua    
         GMT                             Satellite      Satellite     Solar          Solar         Scat ang       
  year-mo-da hr:mn:sc    elevation     azimuth    elevation   azimuth    (bk=180)     
  2018-02-25 00:31:36     65.1            102.2         -43.2            37.5        -999.0
  2018-02-25 02:08:55     20.4            300.9         -31.0            63.9        -999.0
  2018-02-25 10:04:36     19.0             58.2          30.4           168.2          83.5
  2018-02-25 11:41:52     70.6            257.0          29.9           196.1         127.6
  2018-02-25 23:36:17     21.9             91.9         -47.0            18.8        -999.0
Spacecraft : CALIPSO    
         GMT                             Satellite      Satellite     Solar          Solar         Scat ang       
  year-mo-da hr:mn:sc    elevation     azimuth    elevation   azimuth    (bk=180)     
  2018-02-25 00:33:16     56.1            100.8         -43.0            38.1        -999.0
  2018-02-25 02:10:41     22.9            299.5         -30.8            64.3        -999.0
  2018-02-25 10:06:23     16.9             56.8          30.5           168.7          80.8
  2018-02-25 11:43:33     81.6            255.7          29.8           196.5         123.8
  2018-02-25 13:22:03     11.5            274.3          22.0           222.2         129.3
  2018-02-25 23:37:54     19.1             90.4         -47.0            19.4        -999.0
Spacecraft : CloudSat    
         GMT                             Satellite      Satellite     Solar          Solar         Scat ang       
  year-mo-da hr:mn:sc    elevation     azimuth    elevation   azimuth    (bk=180)     
  2018-02-25 00:32:37     53.0            100.4         -43.1            37.9        -999.0
  2018-02-25 02:09:56     23.5            299.0         -30.9            64.2        -999.0
  2018-02-25 10:04:59     15.8             56.2          30.5           168.4          80.0
  2018-02-25 11:41:59     86.5            254.7          29.9           196.1         121.7
  2018-02-25 13:20:17     12.2            273.6          22.2           221.8         129.8
  2018-02-25 23:35:15     17.2             89.7         -47.1            18.4        -999.0
Spacecraft : ISS    
         GMT                             Satellite      Satellite     Solar          Solar         Scat ang       
  year-mo-da hr:mn:sc    elevation     azimuth    elevation   azimuth    (bk=180)     
  2018-02-25 06:20:51     45.1            152.5           7.9           114.2         130.3
  2018-02-25 07:57:17     69.3            351.8          20.6           135.0          93.7
  2018-02-25 09:33:56     76.7             12.0          29.1           159.7         107.6
  2018-02-25 11:10:16     34.7            210.9          30.9           187.1         159.7